createdAt,value
2019-03-12T00:01:58.127Z,56.70
2019-03-12T00:04:28.744Z,57.04
2019-03-12T00:06:58.726Z,57.39
2019-03-12T00:09:28.837Z,57.66
2019-03-12T00:11:59.187Z,57.89
2019-03-12T00:14:29.166Z,58.24
2019-03-12T00:16:59.235Z,58.71
2019-03-12T00:19:30.577Z,59.01
2019-03-12T00:22:00.773Z,59.15
2019-03-12T00:24:31.181Z,59.31
2019-03-12T00:27:01.043Z,59.80
2019-03-12T00:29:31.674Z,59.97
2019-03-12T00:32:02.227Z,60.09
2019-03-12T00:34:32.489Z,60.26
2019-03-12T00:37:02.669Z,60.35
2019-03-12T00:39:32.722Z,60.52
2019-03-12T00:42:02.833Z,60.47
2019-03-12T00:44:33.023Z,60.65
2019-03-12T00:47:03.155Z,60.74
2019-03-12T00:49:33.629Z,61.01
2019-03-12T00:52:03.809Z,61.13
2019-03-12T00:54:36.180Z,61.14
2019-03-12T00:57:06.369Z,61.07
2019-03-12T00:59:36.305Z,61.07
2019-03-12T01:02:06.440Z,61.19
2019-03-12T01:04:36.420Z,61.16
2019-03-12T01:07:06.209Z,61.17
2019-03-12T01:09:36.044Z,61.39
2019-03-12T01:12:06.394Z,61.31
2019-03-12T01:14:36.332Z,61.51
2019-03-12T01:17:06.526Z,61.51
2019-03-12T01:19:36.480Z,61.51
2019-03-12T01:22:06.847Z,61.56
2019-03-12T01:24:37.061Z,61.40
2019-03-12T01:27:07.161Z,61.09
2019-03-12T01:29:37.323Z,60.94
2019-03-12T01:32:07.305Z,60.84
2019-03-12T01:34:37.556Z,61.08
2019-03-12T01:37:07.581Z,61.34
2019-03-12T01:39:37.882Z,61.61
2019-03-12T01:42:08.070Z,62.03
2019-03-12T01:44:38.387Z,62.19
2019-03-12T01:47:08.274Z,62.39
2019-03-12T01:49:38.211Z,62.57
2019-03-12T01:52:08.388Z,62.97
2019-03-12T01:54:38.537Z,63.52
2019-03-12T01:57:08.544Z,64.09
2019-03-12T01:59:38.517Z,64.52
2019-03-12T02:02:08.848Z,64.75
2019-03-12T02:04:38.816Z,64.80
2019-03-12T02:07:08.695Z,65.09
2019-03-12T02:09:38.571Z,66.08
2019-03-12T02:12:08.594Z,65.97
2019-03-12T02:14:38.763Z,65.87
2019-03-12T02:17:09.325Z,66.29
2019-03-12T02:19:39.464Z,66.22
2019-03-12T02:22:10.686Z,66.50
2019-03-12T02:24:52.012Z,66.97
2019-03-12T02:27:12.834Z,67.15
2019-03-12T02:29:43.670Z,67.09
2019-03-12T02:32:13.946Z,66.98
2019-03-12T02:34:44.407Z,67.19
2019-03-12T02:37:14.822Z,67.24
2019-03-12T02:39:44.981Z,67.74
2019-03-12T02:42:14.934Z,67.47
2019-03-12T02:44:44.844Z,67.81
2019-03-12T02:47:14.818Z,67.73
2019-03-12T02:49:44.839Z,67.58
2019-03-12T02:52:15.120Z,67.62
2019-03-12T02:54:45.322Z,67.67
2019-03-12T02:57:15.384Z,67.45
2019-03-12T02:59:46.103Z,67.38
2019-03-12T03:02:16.275Z,67.36
2019-03-12T03:04:46.643Z,67.50
2019-03-12T03:07:42.645Z,67.47
2019-03-12T03:10:14.550Z,67.51
2019-03-12T03:12:45.647Z,67.54
2019-03-12T03:15:17.690Z,67.52
2019-03-12T03:17:47.919Z,67.47
2019-03-12T03:20:18.039Z,67.51
2019-03-12T03:22:48.509Z,67.76
2019-03-12T03:25:18.556Z,68.44
2019-03-12T03:27:48.902Z,68.16
2019-03-12T03:30:20.850Z,68.26
2019-03-12T03:32:50.932Z,68.32
2019-03-12T03:35:21.172Z,68.31
2019-03-12T03:37:51.356Z,68.51
2019-03-12T03:40:21.609Z,68.27
2019-03-12T03:42:52.831Z,68.34
2019-03-12T03:45:22.860Z,68.34
2019-03-12T03:47:53.192Z,68.21
2019-03-12T03:50:24.748Z,68.15
2019-03-12T03:52:55.111Z,68.14
2019-03-12T03:55:25.357Z,68.10
2019-03-12T03:57:55.569Z,68.23
2019-03-12T04:00:25.964Z,68.36
2019-03-12T04:02:55.937Z,68.42
2019-03-12T04:05:26.338Z,68.66
2019-03-12T04:07:56.594Z,68.63
2019-03-12T04:10:26.538Z,68.65
2019-03-12T04:12:57.150Z,68.66
2019-03-12T04:15:27.196Z,68.42
2019-03-12T04:17:58.376Z,68.09
2019-03-12T04:20:28.752Z,67.91
2019-03-12T04:22:58.886Z,67.87
2019-03-12T04:25:29.403Z,67.81
2019-03-12T04:27:59.629Z,67.86
2019-03-12T04:30:30.016Z,67.86
2019-03-12T04:33:00.757Z,67.85
2019-03-12T04:35:31.381Z,67.84
2019-03-12T04:38:01.601Z,67.86
2019-03-12T04:40:31.842Z,67.84
2019-03-12T04:43:02.271Z,67.76
2019-03-12T04:45:32.557Z,67.65
2019-03-12T04:48:03.032Z,67.54
2019-03-12T04:50:33.674Z,67.38
2019-03-12T04:53:05.425Z,66.65
2019-03-12T04:55:36.274Z,66.82
2019-03-12T04:58:06.887Z,66.55
2019-03-12T05:00:37.225Z,66.65
2019-03-12T05:03:08.781Z,66.67
2019-03-12T05:05:39.550Z,66.65
2019-03-12T05:08:10.125Z,66.30
2019-03-12T05:10:40.771Z,65.91
2019-03-12T05:13:12.063Z,65.73
2019-03-12T05:15:42.488Z,65.78
2019-03-12T05:18:13.871Z,65.71
2019-03-12T05:20:44.419Z,65.63
2019-03-12T05:23:14.994Z,65.56
2019-03-12T05:25:46.040Z,65.00
2019-03-12T05:28:16.984Z,65.06
2019-03-12T05:30:47.587Z,65.10
2019-03-12T05:33:18.369Z,65.21
2019-03-12T05:35:48.865Z,65.10
2019-03-12T05:38:21.510Z,64.93
2019-03-12T05:40:52.039Z,64.84
2019-03-12T05:43:22.856Z,64.82
2019-03-12T05:45:53.374Z,64.97
2019-03-12T05:48:25.237Z,64.93
2019-03-12T05:50:58.634Z,64.88
2019-03-12T05:53:52.713Z,64.29
2019-03-12T05:56:24.260Z,63.91
2019-03-12T05:58:56.526Z,64.14
2019-03-12T06:01:30.909Z,64.07
2019-03-12T06:04:06.649Z,64.04
2019-03-12T06:06:40.550Z,63.56
2019-03-12T06:09:11.673Z,63.13
2019-03-12T06:11:52.671Z,63.28
2019-03-12T06:14:25.443Z,62.96
2019-03-12T06:16:55.995Z,62.02
2019-03-12T06:19:28.113Z,61.78
2019-03-12T06:21:58.694Z,61.56
2019-03-12T06:24:34.256Z,61.59
2019-03-12T06:27:06.314Z,61.05
2019-03-12T06:29:39.882Z,59.81
2019-03-12T06:32:40.957Z,59.10
2019-03-12T06:35:22.352Z,59.60
2019-03-12T06:38:10.787Z,59.87
2019-03-12T06:40:59.899Z,60.10
2019-03-12T06:43:51.201Z,59.75
2019-03-12T06:46:46.077Z,59.01
2019-03-12T06:49:39.684Z,58.48
2019-03-12T06:52:46.757Z,57.92
2019-03-12T06:55:41.275Z,58.16
2019-03-12T06:58:28.491Z,57.35
2019-03-12T07:01:26.237Z,57.50
2019-03-12T07:04:38.953Z,56.67
2019-03-12T07:07:20.718Z,56.05
2019-03-12T07:10:20.967Z,55.97
2019-03-12T07:13:11.710Z,56.61
2019-03-12T07:15:49.072Z,56.71
2019-03-12T07:18:39.131Z,55.89
2019-03-12T07:21:24.730Z,56.39
2019-03-12T07:24:29.248Z,56.09
2019-03-12T07:27:34.471Z,56.07
2019-03-12T07:30:17.498Z,55.80
2019-03-12T07:33:16.585Z,55.71
2019-03-12T07:36:06.149Z,54.86
2019-03-12T07:38:54.107Z,54.38
2019-03-12T07:41:42.641Z,54.68
2019-03-12T07:44:44.005Z,54.98
2019-03-12T07:47:35.587Z,53.88
2019-03-12T07:50:35.150Z,54.12
2019-03-12T07:53:24.058Z,53.96
2019-03-12T07:56:09.205Z,54.31
2019-03-12T07:58:57.257Z,54.75
2019-03-12T08:02:03.655Z,54.87
2019-03-12T08:04:52.260Z,54.66
2019-03-12T08:07:57.117Z,54.87
2019-03-12T08:10:50.025Z,54.39
2019-03-12T08:13:41.086Z,54.36
2019-03-12T08:16:32.548Z,53.81
2019-03-12T08:19:24.049Z,52.94
2019-03-12T08:22:18.848Z,53.13
2019-03-12T08:24:55.961Z,52.63
2019-03-12T08:27:45.956Z,51.11
2019-03-12T08:31:05.258Z,50.86
2019-03-12T08:33:55.388Z,50.67
2019-03-12T08:36:57.744Z,49.47
2019-03-12T08:39:51.710Z,49.74
2019-03-12T08:42:54.813Z,50.42
2019-03-12T08:45:38.987Z,49.34
2019-03-12T08:48:45.952Z,49.30
2019-03-12T08:51:51.115Z,49.03
2019-03-12T08:54:30.726Z,49.08
2019-03-12T08:57:06.716Z,48.74
2019-03-12T08:59:56.904Z,49.17
2019-03-12T09:02:50.278Z,48.07
2019-03-12T09:05:47.585Z,48.16
2019-03-12T09:08:40.030Z,47.44
2019-03-12T09:11:34.002Z,47.13
2019-03-12T09:14:26.592Z,46.38
2019-03-12T09:17:18.333Z,46.58
2019-03-12T09:20:12.111Z,45.96
2019-03-12T09:22:51.991Z,45.51
2019-03-12T09:25:40.035Z,45.74
2019-03-12T09:28:19.868Z,46.12
2019-03-12T09:31:15.404Z,46.14
2019-03-12T09:34:19.588Z,45.45
2019-03-12T09:37:12.134Z,44.95
2019-03-12T09:40:01.309Z,45.11
2019-03-12T09:42:53.783Z,44.82
2019-03-12T09:45:49.272Z,43.91
2019-03-12T09:48:51.023Z,44.02
2019-03-12T09:51:25.592Z,43.32
2019-03-12T09:54:15.651Z,43.18
2019-03-12T09:56:53.634Z,43.34
2019-03-12T09:59:46.912Z,42.85
2019-03-12T10:02:54.749Z,43.00
2019-03-12T10:05:50.334Z,43.09
2019-03-12T10:08:42.401Z,42.95
2019-03-12T10:11:34.978Z,41.90
2019-03-12T10:14:30.432Z,40.95
2019-03-12T10:17:19.546Z,39.90
2019-03-12T10:20:03.260Z,39.65
2019-03-12T10:22:42.504Z,39.45
2019-03-12T10:25:30.711Z,39.51
2019-03-12T10:28:21.119Z,40.23
2019-03-12T10:31:23.012Z,39.94
2019-03-12T10:34:11.482Z,39.31
2019-03-12T10:37:12.325Z,39.39
2019-03-12T10:40:24.314Z,39.36
2019-03-12T10:43:00.081Z,39.73
2019-03-12T10:45:55.290Z,39.42
2019-03-12T10:48:24.927Z,39.83
2019-03-12T10:50:55.854Z,40.03
2019-03-12T10:53:27.400Z,40.40
2019-03-12T10:56:02.317Z,40.94
2019-03-12T10:58:33.109Z,41.60
2019-03-12T11:01:04.017Z,42.03
2019-03-12T11:03:34.210Z,42.12
2019-03-12T11:06:05.204Z,41.87
2019-03-12T11:08:35.384Z,41.88
2019-03-12T11:11:06.368Z,41.78
2019-03-12T11:13:37.016Z,41.20
2019-03-12T11:16:08.711Z,41.41
2019-03-12T11:18:39.958Z,41.24
2019-03-12T11:21:10.320Z,41.51
2019-03-12T11:24:05.498Z,41.68
2019-03-12T11:26:42.591Z,41.69
2019-03-12T11:29:41.505Z,41.10
2019-03-12T11:32:15.812Z,41.30
2019-03-12T11:34:51.102Z,40.79
2019-03-12T11:37:27.321Z,40.97
2019-03-12T11:39:58.445Z,41.36
2019-03-12T11:42:29.504Z,41.75
2019-03-12T11:45:00.044Z,41.81
2019-03-12T11:47:30.864Z,41.78
2019-03-12T11:50:01.871Z,41.87
2019-03-12T11:52:33.567Z,41.93
2019-03-12T11:55:04.565Z,41.63
2019-03-12T11:57:35.228Z,41.57
2019-03-12T12:00:08.805Z,41.45
2019-03-12T12:02:39.081Z,41.53
2019-03-12T12:05:10.020Z,41.81
2019-03-12T12:07:40.281Z,42.15
2019-03-12T12:10:11.589Z,42.57
2019-03-12T12:12:41.639Z,42.69
2019-03-12T12:15:11.671Z,42.98
2019-03-12T12:17:41.964Z,42.58
2019-03-12T12:20:12.176Z,42.75
2019-03-12T12:22:42.033Z,42.66
2019-03-12T12:25:13.249Z,42.93
2019-03-12T12:27:43.597Z,43.36
2019-03-12T12:30:16.742Z,43.48
2019-03-12T12:32:47.423Z,43.12
2019-03-12T12:35:17.820Z,43.17
2019-03-12T12:37:47.800Z,42.73
2019-03-12T12:40:18.245Z,42.46
2019-03-12T12:42:48.951Z,42.45
2019-03-12T12:45:20.421Z,42.88
2019-03-12T12:47:50.186Z,43.40
2019-03-12T12:50:20.646Z,43.90
2019-03-12T12:52:51.433Z,44.31
2019-03-12T12:55:22.144Z,44.55
2019-03-12T12:57:52.950Z,44.89
2019-03-12T13:00:23.663Z,45.26
2019-03-12T13:02:53.714Z,45.72
2019-03-12T13:05:24.062Z,45.87
2019-03-12T13:07:54.531Z,45.94
2019-03-12T13:10:24.763Z,46.02
2019-03-12T13:12:55.099Z,45.85
2019-03-12T13:15:25.751Z,45.53
2019-03-12T13:17:57.718Z,45.42
2019-03-12T13:20:33.371Z,44.43
2019-03-12T13:23:04.650Z,44.24
2019-03-12T13:25:35.676Z,44.76
2019-03-12T13:28:05.815Z,45.25
2019-03-12T13:30:36.310Z,45.90
2019-03-12T13:33:07.091Z,46.43
2019-03-12T13:35:37.764Z,46.47
2019-03-12T13:38:11.313Z,46.66
2019-03-12T13:40:42.061Z,46.60
2019-03-12T13:43:13.101Z,45.89
2019-03-12T13:45:43.548Z,44.12
2019-03-12T13:48:13.923Z,42.39
2019-03-12T13:50:44.631Z,41.91
2019-03-12T13:53:15.048Z,42.02
2019-03-12T13:55:45.438Z,41.90
2019-03-12T13:58:17.068Z,42.68
2019-03-12T14:00:54.690Z,43.47
2019-03-12T14:03:26.308Z,44.15
2019-03-12T14:05:56.744Z,44.67
2019-03-12T14:08:26.947Z,44.96
2019-03-12T14:10:56.952Z,45.40
2019-03-12T14:13:27.439Z,45.51
2019-03-12T14:15:57.628Z,45.67
2019-03-12T14:18:28.161Z,46.08
2019-03-12T14:21:04.364Z,46.18
2019-03-12T14:23:40.593Z,46.35
2019-03-12T14:26:13.109Z,46.45
2019-03-12T14:28:43.519Z,46.53
2019-03-12T14:31:13.688Z,46.43
2019-03-12T14:33:44.125Z,46.43
2019-03-12T14:36:15.003Z,46.20
2019-03-12T14:38:45.182Z,46.11
2019-03-12T14:41:15.528Z,46.51
2019-03-12T14:43:45.729Z,46.79
2019-03-12T14:46:15.794Z,46.93
2019-03-12T14:48:48.496Z,47.06
2019-03-12T14:51:54.829Z,47.44
2019-03-12T14:54:25.607Z,47.92
2019-03-12T14:56:55.815Z,48.34
2019-03-12T14:59:26.320Z,48.76
2019-03-12T15:01:57.278Z,49.75
2019-03-12T15:04:27.709Z,51.76
2019-03-12T15:06:58.073Z,53.73
2019-03-12T15:09:28.035Z,54.99
2019-03-12T15:11:58.518Z,55.33
2019-03-12T15:14:29.254Z,56.99
2019-03-12T15:16:59.870Z,57.52
2019-03-12T15:19:29.812Z,58.72
2019-03-12T15:22:00.976Z,59.07
2019-03-12T15:24:31.074Z,60.88
2019-03-12T15:27:02.351Z,62.04
2019-03-12T15:29:33.217Z,62.79
2019-03-12T15:32:04.762Z,65.01
2019-03-12T15:34:35.415Z,65.37
2019-03-12T15:37:05.541Z,68.01
2019-03-12T15:39:35.682Z,68.09
2019-03-12T15:42:06.145Z,68.67
2019-03-12T15:44:36.596Z,68.52
2019-03-12T15:47:08.787Z,69.11
2019-03-12T15:49:42.837Z,69.16
2019-03-12T15:52:11.358Z,69.67
2019-03-12T15:54:41.413Z,69.93
2019-03-12T15:57:11.358Z,70.13
2019-03-12T15:59:41.480Z,70.97
2019-03-12T16:02:11.705Z,71.52
2019-03-12T16:04:42.652Z,71.96
2019-03-12T16:07:13.892Z,72.04
2019-03-12T16:09:44.237Z,72.25
2019-03-12T16:12:14.777Z,72.61
2019-03-12T16:14:45.138Z,72.85
2019-03-12T16:17:15.557Z,73.50
2019-03-12T16:19:46.194Z,74.57
2019-03-12T16:22:16.291Z,74.14
2019-03-12T16:24:46.619Z,74.31
2019-03-12T16:27:16.618Z,74.50
2019-03-12T16:29:48.455Z,74.56
2019-03-12T16:32:19.221Z,74.66
2019-03-12T16:34:50.961Z,74.72
2019-03-12T16:37:25.830Z,74.96
2019-03-12T16:39:57.405Z,75.02
2019-03-12T16:42:34.907Z,74.97
2019-03-12T16:45:06.210Z,75.49
2019-03-12T16:47:39.311Z,75.83
2019-03-12T16:50:09.544Z,75.67
2019-03-12T16:52:43.553Z,75.54
2019-03-12T16:55:24.590Z,75.67
2019-03-12T16:57:58.462Z,75.83
2019-03-12T17:00:33.408Z,75.76
2019-03-12T17:03:03.804Z,75.92
2019-03-12T17:05:34.637Z,75.92
2019-03-12T17:08:12.703Z,75.92
2019-03-12T17:10:54.817Z,75.82
2019-03-12T17:13:19.738Z,75.87
2019-03-12T17:15:54.426Z,75.96
2019-03-12T17:18:24.992Z,76.02
2019-03-12T17:20:55.981Z,76.26
2019-03-12T17:23:26.504Z,76.04
2019-03-12T17:25:56.771Z,75.87
2019-03-12T17:28:26.915Z,75.86
2019-03-12T17:30:57.406Z,75.98
2019-03-12T17:33:28.078Z,76.01
2019-03-12T17:35:58.644Z,76.01
2019-03-12T17:38:36.609Z,75.98
2019-03-12T17:41:00.750Z,75.66
2019-03-12T17:43:31.597Z,75.55
2019-03-12T17:46:01.736Z,75.33
2019-03-12T17:48:32.134Z,75.11
2019-03-12T17:51:02.042Z,74.79
2019-03-12T17:53:32.828Z,74.00
2019-03-12T17:56:05.450Z,73.71
2019-03-12T17:58:37.067Z,73.51
2019-03-12T18:01:07.364Z,73.18
2019-03-12T18:03:37.211Z,72.95
2019-03-12T18:06:07.227Z,72.67
2019-03-12T18:08:37.393Z,72.37
2019-03-12T18:11:07.746Z,72.10
2019-03-12T18:13:37.883Z,71.85
2019-03-12T18:16:08.146Z,71.69
2019-03-12T18:18:41.786Z,71.67
2019-03-12T18:21:13.770Z,71.60
2019-03-12T18:23:44.526Z,71.42
2019-03-12T18:26:14.970Z,71.26
2019-03-12T18:28:44.977Z,71.12
2019-03-12T18:31:15.061Z,71.14
2019-03-12T18:33:45.504Z,71.20
2019-03-12T18:36:15.768Z,71.09
2019-03-12T18:38:46.030Z,71.02
2019-03-12T18:41:16.138Z,71.06
2019-03-12T18:43:46.246Z,71.13
2019-03-12T18:46:16.998Z,71.31
2019-03-12T18:48:47.465Z,71.43
2019-03-12T18:51:17.596Z,71.55
2019-03-12T18:53:48.423Z,71.59
2019-03-12T18:56:18.582Z,71.62
2019-03-12T18:58:48.847Z,71.61
2019-03-12T19:01:18.856Z,71.52
2019-03-12T19:03:49.866Z,71.51
2019-03-12T19:06:20.189Z,71.36
2019-03-12T19:08:50.733Z,71.12
2019-03-12T19:11:20.914Z,71.10
2019-03-12T19:13:51.174Z,71.12
2019-03-12T19:16:21.943Z,71.18
2019-03-12T19:18:52.702Z,71.21
2019-03-12T19:21:23.121Z,71.26
2019-03-12T19:23:53.377Z,71.22
2019-03-12T19:26:23.606Z,71.51
2019-03-12T19:28:57.008Z,71.43
2019-03-12T19:31:35.562Z,71.30
2019-03-12T19:34:12.458Z,71.30
2019-03-12T19:36:42.824Z,71.06
2019-03-12T19:39:15.549Z,71.00
2019-03-12T19:41:45.806Z,70.58
2019-03-12T19:44:16.555Z,70.29
2019-03-12T19:46:48.122Z,69.93
2019-03-12T19:49:18.261Z,69.49
2019-03-12T19:51:49.431Z,69.54
2019-03-12T19:54:20.550Z,69.33
2019-03-12T19:56:50.680Z,69.06
2019-03-12T19:59:20.752Z,68.81
2019-03-12T20:01:53.230Z,68.66
2019-03-12T20:04:23.351Z,68.58
2019-03-12T20:06:53.262Z,68.62
2019-03-12T20:09:44.524Z,68.67
2019-03-12T20:12:44.088Z,68.60
2019-03-12T20:15:45.206Z,68.60
2019-03-12T20:18:49.869Z,68.58
2019-03-12T20:21:54.795Z,68.67
2019-03-12T20:25:03.797Z,68.58
2019-03-12T20:28:44.063Z,68.64
2019-03-12T20:31:54.833Z,68.53
2019-03-12T20:35:09.109Z,68.48
2019-03-12T20:38:14.887Z,68.55
2019-03-12T20:41:21.922Z,68.59
2019-03-12T20:44:32.739Z,68.88
2019-03-12T20:47:59.201Z,68.93
2019-03-12T20:51:05.221Z,69.04
2019-03-12T20:54:11.629Z,68.99
2019-03-12T20:57:22.311Z,69.07
2019-03-12T21:00:35.579Z,69.19
2019-03-12T21:03:57.663Z,69.21
2019-03-12T21:07:13.832Z,69.38
2019-03-12T21:10:33.503Z,69.58
2019-03-12T21:13:49.808Z,69.61
2019-03-12T21:17:06.633Z,69.51
2019-03-12T21:20:14.058Z,69.56
2019-03-12T21:23:30.764Z,69.65
2019-03-12T21:26:42.048Z,69.72
2019-03-12T21:29:50.943Z,69.94
2019-03-12T21:32:21.121Z,70.01
2019-03-12T21:34:51.161Z,70.10
2019-03-12T21:37:21.337Z,70.29
2019-03-12T21:39:55.805Z,70.46
2019-03-12T21:42:25.379Z,70.63
2019-03-12T21:44:55.396Z,70.78
2019-03-12T21:47:26.530Z,70.98
2019-03-12T21:49:56.435Z,71.06
2019-03-12T21:52:26.339Z,70.99
2019-03-12T21:54:56.274Z,71.12
2019-03-12T21:57:26.329Z,71.28
2019-03-12T21:59:56.929Z,71.31
2019-03-12T22:02:27.047Z,71.40
2019-03-12T22:04:57.396Z,71.47
2019-03-12T22:07:27.305Z,71.57
2019-03-12T22:09:57.061Z,71.73
2019-03-12T22:12:27.037Z,71.83
2019-03-12T22:14:57.428Z,71.82
2019-03-12T22:17:27.400Z,71.82
2019-03-12T22:19:57.410Z,71.92
2019-03-12T22:22:32.032Z,71.96
2019-03-12T22:25:01.583Z,71.95
2019-03-12T22:27:31.974Z,71.91
2019-03-12T22:30:01.730Z,71.84
2019-03-12T22:32:31.811Z,71.87
2019-03-12T22:35:01.974Z,71.86
2019-03-12T22:37:32.089Z,71.78
2019-03-12T22:40:02.079Z,71.42
2019-03-12T22:42:32.653Z,70.92
2019-03-12T22:45:02.464Z,70.51
2019-03-12T22:47:33.140Z,70.16
2019-03-12T22:50:02.970Z,70.13
2019-03-12T22:52:33.193Z,70.19
2019-03-12T22:55:04.134Z,70.36
2019-03-12T22:57:34.936Z,70.64
2019-03-12T23:00:05.691Z,70.90
2019-03-12T23:02:35.656Z,71.12
2019-03-12T23:05:05.796Z,71.39
2019-03-12T23:07:35.762Z,71.62
2019-03-12T23:10:06.040Z,71.86
2019-03-12T23:12:35.851Z,72.02
2019-03-12T23:15:07.003Z,72.04
2019-03-12T23:17:37.108Z,72.04
2019-03-12T23:20:09.006Z,71.96
2019-03-12T23:22:38.918Z,71.86
2019-03-12T23:25:09.839Z,71.76
2019-03-12T23:27:40.308Z,71.95
2019-03-12T23:30:12.134Z,71.99
2019-03-12T23:32:42.257Z,72.04
2019-03-12T23:35:12.898Z,71.96
2019-03-12T23:37:43.262Z,71.94
2019-03-12T23:40:13.363Z,71.94
2019-03-12T23:42:43.318Z,71.91
2019-03-12T23:45:13.770Z,71.99
2019-03-12T23:47:43.757Z,72.19
2019-03-12T23:50:13.788Z,72.24
2019-03-12T23:52:44.115Z,72.41
2019-03-12T23:55:14.814Z,72.61
2019-03-12T23:57:44.750Z,72.79
